Terminal Aerodrome Forecast
Issued by NWS

Home | Current Version | Previous Version | Graphics & Text | Print | Product List | Glossary On
Versions: 1 2 3 4 5 6 7 8 9 10 11 12 13
000
FTUS43 KGRB 301127
TAFMTW
TAF
KMTW 301127Z 3012/0112 34009KT P6SM SCT008 SCT022 BKN150
      TEMPO 3012/3014 4SM -RA BR BKN008
     FM301600 35008KT P6SM BKN015 BKN035
     FM302000 02011KT P6SM BKN025
     FM010000 36005KT P6SM SCT040=

USA.gov is the U.S. government's official web portal to all federal, state and local government web resources and services.